createdAt,value
2023-07-02T01:49:07.276Z,8.27
2023-07-02T01:52:00.192Z,7.70
2023-07-02T02:59:31.656Z,7.40
2023-07-02T03:02:00.468Z,8.88
2023-07-02T03:14:27.862Z,8.20
2023-07-02T03:16:57.056Z,8.15
2023-07-02T03:19:50.901Z,6.63
2023-07-02T03:23:09.779Z,5.72
2023-07-02T03:30:15.548Z,7.13
2023-07-02T03:33:34.889Z,7.75
2023-07-02T03:41:23.513Z,7.07
2023-07-02T03:43:52.004Z,6.97
2023-07-02T03:46:20.421Z,7.85
2023-07-02T03:48:48.724Z,7.50
2023-07-02T03:51:20.891Z,7.07
2023-07-02T03:53:50.590Z,6.32
2023-07-02T03:56:18.401Z,8.15
2023-07-02T03:58:51.265Z,6.22
2023-07-02T05:42:56.456Z,7.32
2023-07-02T05:45:29.133Z,5.55
2023-07-02T05:48:01.268Z,6.88
2023-07-02T05:50:32.408Z,6.57
2023-07-02T05:56:08.757Z,6.75
2023-07-02T05:58:48.638Z,5.70
2023-07-02T06:01:25.066Z,5.70
2023-07-02T06:04:00.777Z,5.97
2023-07-02T06:06:33.086Z,5.45
2023-07-02T06:09:12.557Z,5.63
2023-07-02T06:11:47.041Z,5.32
2023-07-02T06:14:29.240Z,5.75
2023-07-02T06:17:36.169Z,5.18
2023-07-02T06:44:24.745Z,6.20
2023-07-02T06:50:05.622Z,4.57
2023-07-02T06:52:56.269Z,4.22
2023-07-02T06:55:35.355Z,4.13
2023-07-02T06:58:26.254Z,4.88
2023-07-02T07:01:13.880Z,5.70
2023-07-02T07:03:42.066Z,5.40
2023-07-02T07:12:50.216Z,6.25
2023-07-02T07:15:26.051Z,5.38
2023-07-02T07:18:14.800Z,5.50
2023-07-02T07:20:58.964Z,5.57
2023-07-02T07:23:34.484Z,4.57
2023-07-02T07:26:02.414Z,5.38
2023-07-02T07:28:33.937Z,4.68
2023-07-02T07:36:12.918Z,5.00
2023-07-02T07:38:51.141Z,4.63
2023-07-02T07:41:32.802Z,5.50
2023-07-02T07:52:22.626Z,4.65
2023-07-02T07:57:32.479Z,5.00
2023-07-02T08:00:02.114Z,4.63
2023-07-02T08:05:31.738Z,5.25
2023-07-02T08:10:43.023Z,5.00
2023-07-02T08:13:10.734Z,5.25
2023-07-02T08:20:05.827Z,4.50
2023-07-02T08:22:45.457Z,5.00
2023-07-02T08:25:32.249Z,5.78
2023-07-02T08:28:12.616Z,4.68
2023-07-02T08:30:47.824Z,4.25
2023-07-02T08:33:19.317Z,4.65
2023-07-02T08:35:59.766Z,5.30
2023-07-02T08:38:38.172Z,5.68
2023-07-02T08:41:26.629Z,4.65
2023-07-02T08:44:08.244Z,4.80
2023-07-02T09:13:26.083Z,4.38
2023-07-02T09:15:56.418Z,4.88
2023-07-02T09:18:28.101Z,4.45
2023-07-02T09:20:55.964Z,4.57
2023-07-02T09:31:17.402Z,4.60
2023-07-02T09:34:03.351Z,4.38
2023-07-02T09:36:45.149Z,4.53
2023-07-02T09:39:26.111Z,4.35
2023-07-02T09:42:04.770Z,4.55
2023-07-02T09:44:37.352Z,4.45
2023-07-02T09:47:11.718Z,4.75
2023-07-02T09:49:58.048Z,5.55
2023-07-02T09:52:30.244Z,5.30
2023-07-02T09:55:05.413Z,4.47
2023-07-02T09:57:38.986Z,4.72
2023-07-02T10:00:26.943Z,4.75
2023-07-02T10:03:05.246Z,4.57
2023-07-02T10:05:37.306Z,4.60
2023-07-02T10:08:22.743Z,4.82
2023-07-02T10:11:08.377Z,4.43
2023-07-02T10:13:36.434Z,3.20
2023-07-02T10:16:07.626Z,3.33
2023-07-02T10:18:35.671Z,4.60
2023-07-02T10:21:16.086Z,3.00
2023-07-02T10:23:43.618Z,3.92
2023-07-02T10:26:18.524Z,3.05
2023-07-02T10:28:59.339Z,3.63
2023-07-02T10:31:38.935Z,3.88
2023-07-02T10:34:07.180Z,3.97
2023-07-02T10:39:25.216Z,3.75
2023-07-02T10:41:53.012Z,4.07
2023-07-02T10:44:20.218Z,3.05
2023-07-02T10:46:49.265Z,2.78
2023-07-02T10:52:08.954Z,3.33
2023-07-02T10:54:47.811Z,3.50
2023-07-02T10:57:23.372Z,4.18
2023-07-02T10:59:50.781Z,3.78
2023-07-02T11:02:19.057Z,3.95
2023-07-02T11:08:38.635Z,3.75
2023-07-02T12:28:29.794Z,3.80
2023-07-02T12:30:57.690Z,3.88
2023-07-02T12:33:25.089Z,4.07
2023-07-02T12:35:53.408Z,4.45
2023-07-02T12:38:20.899Z,4.22
2023-07-02T12:40:51.436Z,4.18
2023-07-02T12:43:48.169Z,3.40
2023-07-02T12:46:24.861Z,3.38
2023-07-02T12:53:25.275Z,3.38
2023-07-02T12:55:56.486Z,3.90
2023-07-02T12:58:25.104Z,3.97
2023-07-02T13:03:37.733Z,5.00
2023-07-02T13:06:06.347Z,3.28
2023-07-02T13:08:33.841Z,3.58
2023-07-02T13:11:03.684Z,3.42
2023-07-02T13:13:30.884Z,3.22
2023-07-02T13:15:59.238Z,3.60
2023-07-02T13:18:28.369Z,4.32
2023-07-02T13:20:55.646Z,3.90
2023-07-02T13:23:23.030Z,3.70
2023-07-02T13:26:31.014Z,3.53
2023-07-02T13:28:58.447Z,3.50
2023-07-02T13:31:25.912Z,2.50
2023-07-02T13:33:53.080Z,3.75
2023-07-02T13:36:20.656Z,4.28
2023-07-02T13:38:48.060Z,3.95
2023-07-02T13:41:15.273Z,3.35
2023-07-02T13:43:42.473Z,4.95
2023-07-02T13:46:12.693Z,4.10
2023-07-02T13:48:40.212Z,3.70
2023-07-02T13:51:09.408Z,4.07
2023-07-02T13:53:37.254Z,4.25
2023-07-02T13:56:04.698Z,4.72
2023-07-02T13:58:59.667Z,3.63
2023-07-02T14:01:29.035Z,4.75
2023-07-02T14:03:57.154Z,3.72
2023-07-02T14:06:24.590Z,4.82
2023-07-02T14:08:51.854Z,4.43
2023-07-02T14:11:22.390Z,3.92
2023-07-02T14:13:52.418Z,4.80
2023-07-02T14:16:24.689Z,4.85
2023-07-02T14:19:02.742Z,4.38
2023-07-02T14:21:31.580Z,4.93
2023-07-02T14:23:59.976Z,4.55
2023-07-02T14:26:27.827Z,4.93
2023-07-02T14:28:55.385Z,5.22
2023-07-02T14:31:22.988Z,4.45
2023-07-02T14:33:50.301Z,3.70
2023-07-02T14:36:18.061Z,4.00
2023-07-02T14:38:45.644Z,3.90
2023-07-02T14:41:12.861Z,5.05
2023-07-02T14:43:42.153Z,4.10
2023-07-02T14:46:09.568Z,4.28
2023-07-02T14:48:37.290Z,4.15
2023-07-02T14:51:05.187Z,3.78
2023-07-02T14:53:33.237Z,4.55
2023-07-02T14:58:44.452Z,4.50
2023-07-02T15:03:53.307Z,4.63
2023-07-02T15:06:23.913Z,5.47
2023-07-02T15:08:52.769Z,12.27
2023-07-02T15:27:39.706Z,4.38
2023-07-02T15:35:31.250Z,4.63
2023-07-02T15:43:21.312Z,3.72
2023-07-02T15:48:59.151Z,4.90
2023-07-02T15:51:26.764Z,4.63
2023-07-02T15:53:54.102Z,7.53
2023-07-02T15:56:21.778Z,8.25
2023-07-02T16:17:41.486Z,5.60
2023-07-02T16:20:12.626Z,5.00
2023-07-02T16:22:40.163Z,5.10
2023-07-02T16:25:07.863Z,4.85
2023-07-02T16:30:17.614Z,5.03
2023-07-02T16:32:49.200Z,5.07
2023-07-02T16:40:39.754Z,4.63
2023-07-02T16:43:07.715Z,5.78
2023-07-02T16:45:37.454Z,5.47
2023-07-02T17:33:12.703Z,8.32
2023-07-02T17:35:43.989Z,5.80
2023-07-02T17:38:14.469Z,6.25
2023-07-02T17:40:42.574Z,5.45
2023-07-02T17:43:11.748Z,6.13
2023-07-02T17:45:39.275Z,5.88
2023-07-02T17:48:06.743Z,5.63
2023-07-02T17:50:34.333Z,6.00
2023-07-02T17:53:02.018Z,7.60
2023-07-02T17:55:29.975Z,6.18
2023-07-02T17:57:58.449Z,5.93
2023-07-02T18:00:26.143Z,7.72
2023-07-02T18:02:53.881Z,6.13
2023-07-02T18:10:53.576Z,5.88
2023-07-02T18:16:05.849Z,5.68
2023-07-02T18:58:45.133Z,8.85
2023-07-02T19:01:39.850Z,7.07
2023-07-02T19:04:36.789Z,7.38
2023-07-02T19:40:03.370Z,9.15
2023-07-02T19:42:31.454Z,8.18
2023-07-02T20:27:19.487Z,8.18
2023-07-02T21:21:37.159Z,10.35
2023-07-02T22:37:13.605Z,8.90
2023-07-02T22:39:42.820Z,9.18
2023-07-02T22:42:10.597Z,9.23
2023-07-02T22:44:37.708Z,8.90
2023-07-02T22:47:05.290Z,8.88
2023-07-02T22:49:34.560Z,8.55
2023-07-02T22:52:03.566Z,9.65
2023-07-02T22:54:32.271Z,8.55
2023-07-02T22:57:00.386Z,8.52
2023-07-02T22:59:29.462Z,8.80
2023-07-02T23:01:56.790Z,8.68
2023-07-02T23:04:24.693Z,9.52
2023-07-02T23:06:52.233Z,9.98
2023-07-02T23:09:20.457Z,9.93
2023-07-02T23:11:48.530Z,8.95
2023-07-02T23:14:15.872Z,10.23
2023-07-02T23:16:44.703Z,9.88
2023-07-02T23:19:12.541Z,9.30
2023-07-02T23:21:46.790Z,9.55
2023-07-02T23:24:14.873Z,9.00
2023-07-02T23:26:42.423Z,9.50
2023-07-02T23:29:10.100Z,9.63
2023-07-02T23:31:38.002Z,8.90
